createdAt,value
2018-04-02T00:00:18.466Z,5.50
2018-04-02T00:02:48.253Z,5.40
2018-04-02T00:05:17.269Z,5.40
2018-04-02T00:07:47.184Z,5.30
2018-04-02T00:10:17.181Z,5.20
2018-04-02T00:12:46.277Z,5.20
2018-04-02T00:15:15.299Z,5.20
2018-04-02T00:17:45.086Z,5.10
2018-04-02T00:20:14.110Z,5.10
2018-04-02T00:22:43.134Z,5.10
2018-04-02T00:25:12.145Z,5.00
2018-04-02T00:27:41.204Z,5.10
2018-04-02T00:30:10.239Z,5.10
2018-04-02T00:32:39.241Z,5.10
2018-04-02T00:35:08.374Z,5.10
2018-04-02T00:37:37.389Z,5.20
2018-04-02T00:40:06.407Z,5.20
2018-04-02T00:42:35.452Z,5.30
2018-04-02T00:45:05.230Z,5.20
2018-04-02T00:47:34.240Z,5.20
2018-04-02T00:50:04.156Z,5.00
2018-04-02T00:52:33.941Z,5.00
2018-04-02T00:55:02.952Z,5.00
2018-04-02T00:57:32.777Z,4.80
2018-04-02T01:00:02.567Z,4.70
2018-04-02T01:02:31.585Z,4.70
2018-04-02T01:05:01.431Z,4.80
2018-04-02T01:07:30.445Z,4.80
2018-04-02T01:09:59.476Z,4.80
2018-04-02T01:12:29.347Z,4.70
2018-04-02T01:14:58.371Z,4.70
2018-04-02T01:17:27.383Z,4.70
2018-04-02T01:19:57.297Z,4.70
2018-04-02T01:22:27.078Z,4.70
2018-04-02T01:24:56.089Z,4.70
2018-04-02T01:27:25.925Z,4.70
2018-04-02T01:29:55.697Z,4.60
2018-04-02T01:32:24.721Z,4.60
2018-04-02T01:34:54.628Z,4.70
2018-04-02T01:37:24.416Z,4.60
2018-04-02T01:39:53.437Z,4.50
2018-04-02T01:42:23.254Z,4.50
2018-04-02T01:44:53.039Z,4.60
2018-04-02T01:47:22.063Z,4.50
2018-04-02T01:49:51.888Z,4.40
2018-04-02T01:52:20.901Z,4.40
2018-04-02T01:54:49.914Z,4.40
2018-04-02T01:57:18.961Z,4.50
2018-04-02T01:59:47.982Z,4.50
2018-04-02T02:02:17.068Z,4.50
2018-04-02T02:04:46.220Z,4.40
2018-04-02T02:07:15.238Z,4.40
2018-04-02T02:09:44.261Z,4.40
2018-04-02T02:12:13.310Z,4.40
2018-04-02T02:14:43.235Z,4.40
2018-04-02T02:17:13.026Z,4.30
2018-04-02T02:19:42.040Z,4.30
2018-04-02T02:22:11.053Z,4.30
2018-04-02T02:24:40.114Z,4.30
2018-04-02T02:27:09.897Z,4.20
2018-04-02T02:29:39.677Z,4.30
2018-04-02T02:32:08.747Z,4.30
2018-04-02T02:34:37.768Z,4.20
2018-04-02T02:37:06.779Z,4.20
2018-04-02T02:39:35.822Z,4.20
2018-04-02T02:42:05.601Z,4.20
2018-04-02T02:44:34.625Z,4.20
2018-04-02T02:47:04.464Z,4.10
2018-04-02T02:49:33.511Z,4.10
2018-04-02T02:52:02.528Z,4.20
2018-04-02T02:54:32.326Z,4.20
2018-04-02T02:57:02.107Z,4.20
2018-04-02T02:59:31.124Z,4.20
2018-04-02T03:02:00.187Z,4.20
2018-04-02T03:04:29.206Z,4.20
2018-04-02T03:06:58.231Z,4.20
2018-04-02T03:09:27.289Z,4.20
2018-04-02T03:11:56.297Z,4.20
2018-04-02T03:14:26.102Z,4.20
2018-04-02T03:16:55.258Z,4.20
2018-04-02T03:19:24.276Z,4.20
2018-04-02T03:21:53.292Z,4.20
2018-04-02T03:24:23.121Z,4.30
2018-04-02T03:26:52.145Z,4.20
2018-04-02T03:29:21.160Z,4.30
2018-04-02T03:31:50.317Z,4.30
2018-04-02T03:34:19.332Z,4.30
2018-04-02T03:36:48.355Z,4.40
2018-04-02T03:39:17.399Z,4.30
2018-04-02T03:41:46.418Z,4.30
2018-04-02T03:44:15.428Z,4.30
2018-04-02T03:46:44.488Z,4.30
2018-04-02T03:49:13.517Z,4.30
2018-04-02T03:51:42.524Z,4.30
2018-04-02T03:54:11.573Z,4.20
2018-04-02T03:56:40.583Z,4.20
2018-04-02T03:59:09.599Z,4.10
2018-04-02T04:01:38.668Z,4.00
2018-04-02T04:04:07.692Z,4.00
2018-04-02T04:06:36.697Z,4.00
2018-04-02T04:09:06.563Z,4.00
2018-04-02T04:11:35.584Z,4.00
2018-04-02T04:14:04.596Z,4.00
2018-04-02T04:16:34.420Z,3.90
2018-04-02T04:19:04.242Z,3.90
2018-04-02T04:21:33.261Z,3.90
2018-04-02T04:24:02.308Z,3.80
2018-04-02T04:26:32.097Z,3.90
2018-04-02T04:29:01.126Z,3.90
2018-04-02T04:31:30.913Z,3.80
2018-04-02T04:33:59.933Z,3.90
2018-04-02T04:36:28.991Z,3.80
2018-04-02T04:38:58.005Z,3.90
2018-04-02T04:41:27.786Z,3.80
2018-04-02T04:43:56.853Z,3.80
2018-04-02T04:46:25.872Z,3.80
2018-04-02T04:48:54.901Z,3.80
2018-04-02T04:51:24.823Z,3.90
2018-04-02T04:53:54.601Z,3.90
2018-04-02T04:56:23.657Z,3.90
2018-04-02T04:58:52.729Z,3.80
2018-04-02T05:01:21.754Z,3.90
2018-04-02T05:03:50.777Z,3.90
2018-04-02T05:06:19.929Z,3.90
2018-04-02T05:08:49.049Z,3.90
2018-04-02T05:11:17.348Z,3.90
2018-04-02T05:13:46.232Z,4.00
2018-04-02T05:16:15.253Z,4.10
2018-04-02T05:18:45.037Z,4.20
2018-04-02T05:21:14.217Z,4.20
2018-04-02T05:23:43.236Z,4.10
2018-04-02T05:26:12.265Z,4.10
2018-04-02T05:28:41.317Z,4.20
2018-04-02T05:31:10.337Z,4.20
2018-04-02T05:33:40.145Z,4.40
2018-04-02T05:36:10.055Z,4.50
2018-04-02T05:38:40.366Z,4.60
2018-04-02T05:41:09.395Z,4.50
2018-04-02T05:43:38.451Z,4.60
2018-04-02T05:46:07.476Z,4.70
2018-04-02T05:48:37.264Z,4.70
2018-04-02T05:51:06.369Z,4.70
2018-04-02T05:53:35.373Z,4.80
2018-04-02T05:56:05.160Z,4.70
2018-04-02T05:58:34.222Z,4.70
2018-04-02T06:01:03.257Z,4.70
2018-04-02T06:03:32.282Z,4.70
2018-04-02T06:06:01.337Z,4.70
2018-04-02T06:08:30.359Z,4.70
2018-04-02T06:10:59.386Z,4.80
2018-04-02T06:13:28.465Z,4.90
2018-04-02T06:15:57.493Z,4.90
2018-04-02T06:18:26.522Z,4.90
2018-04-02T06:20:56.346Z,5.10
2018-04-02T06:23:26.262Z,5.10
2018-04-02T06:25:55.300Z,5.00
2018-04-02T06:28:24.356Z,5.10
2018-04-02T06:30:53.378Z,5.30
2018-04-02T06:33:22.404Z,5.30
2018-04-02T06:35:51.508Z,5.40
2018-04-02T06:38:20.509Z,5.50
2018-04-02T06:40:50.293Z,5.80
2018-04-02T06:43:19.382Z,5.80
2018-04-02T06:45:49.184Z,6.10
2018-04-02T06:48:18.205Z,6.10
2018-04-02T06:50:47.287Z,6.00
2018-04-02T06:53:16.314Z,6.10
2018-04-02T06:55:46.984Z,6.40
2018-04-02T06:58:16.017Z,6.40
2018-04-02T07:00:45.042Z,6.60
2018-04-02T07:03:14.098Z,6.70
2018-04-02T07:05:43.160Z,6.40
2018-04-02T07:08:12.197Z,6.10
2018-04-02T07:10:41.345Z,6.20
2018-04-02T07:13:10.420Z,6.20
2018-04-02T07:15:39.497Z,6.10
2018-04-02T07:18:09.337Z,6.30
2018-04-02T07:20:38.345Z,6.30
2018-04-02T07:23:07.425Z,6.50
2018-04-02T07:25:36.614Z,6.40
2018-04-02T07:28:05.633Z,6.40
2018-04-02T07:30:34.661Z,6.40
2018-04-02T07:33:03.769Z,6.30
2018-04-02T07:35:32.792Z,6.10
2018-04-02T07:38:01.874Z,6.30
2018-04-02T07:40:30.910Z,6.10
2018-04-02T07:42:59.937Z,6.10
2018-04-02T07:45:28.966Z,6.00
2018-04-02T07:47:58.020Z,6.00
2018-04-02T07:50:27.049Z,6.00
2018-04-02T07:52:56.084Z,6.10
2018-04-02T07:55:25.168Z,6.20
2018-04-02T07:57:54.225Z,6.30
2018-04-02T08:00:24.001Z,6.60
2018-04-02T08:02:53.102Z,6.50
2018-04-02T08:05:22.083Z,6.60
2018-04-02T08:07:51.110Z,6.60
2018-04-02T08:10:20.951Z,6.40
2018-04-02T08:12:49.992Z,6.40
2018-04-02T08:15:19.012Z,6.50
2018-04-02T08:17:48.934Z,6.70
2018-04-02T08:20:17.904Z,6.70
2018-04-02T08:22:46.931Z,6.60
2018-04-02T08:25:16.000Z,6.70
2018-04-02T08:27:45.073Z,6.80
2018-04-02T08:30:14.108Z,6.80
2018-04-02T08:32:43.201Z,6.90
2018-04-02T08:35:12.989Z,7.10
2018-04-02T08:37:42.003Z,7.10
2018-04-02T08:40:11.830Z,7.30
2018-04-02T08:42:40.869Z,7.30
2018-04-02T08:45:09.885Z,7.10
2018-04-02T08:47:39.709Z,7.10
2018-04-02T08:50:09.505Z,7.20
2018-04-02T08:52:39.332Z,7.10
2018-04-02T08:55:09.154Z,7.30
2018-04-02T08:57:38.181Z,7.30
2018-04-02T09:00:07.265Z,7.50
2018-04-02T09:02:36.308Z,7.80
2018-04-02T09:05:05.858Z,8.00
2018-04-02T09:07:35.150Z,7.90
2018-04-02T09:10:04.502Z,7.90
2018-04-02T09:12:33.501Z,7.90
2018-04-02T09:15:02.558Z,7.90
2018-04-02T09:17:31.609Z,7.70
2018-04-02T09:20:01.449Z,7.90
2018-04-02T09:22:31.450Z,7.90
2018-04-02T09:25:00.482Z,8.00
2018-04-02T09:27:29.574Z,8.10
2018-04-02T09:29:58.664Z,8.20
2018-04-02T09:32:27.673Z,8.30
2018-04-02T09:34:56.738Z,8.30
2018-04-02T09:37:25.801Z,8.30
2018-04-02T09:39:55.599Z,8.60
2018-04-02T09:42:24.661Z,8.60
2018-04-02T09:44:53.685Z,8.70
2018-04-02T09:47:22.749Z,8.60
2018-04-02T09:49:51.943Z,8.60
2018-04-02T09:52:20.995Z,8.90
2018-04-02T09:54:50.789Z,9.70
2018-04-02T09:57:20.637Z,9.30
2018-04-02T09:59:49.658Z,9.30
2018-04-02T10:02:21.671Z,9.50
2018-04-02T10:05:00.725Z,9.90
2018-04-02T10:07:29.673Z,10.20
2018-04-02T10:09:58.804Z,10.20
2018-04-02T10:12:27.817Z,9.80
2018-04-02T10:14:56.889Z,9.90
2018-04-02T10:17:25.951Z,10.40
2018-04-02T10:19:55.016Z,10.60
2018-04-02T10:22:24.105Z,10.60
2018-04-02T10:24:53.160Z,10.70
2018-04-02T10:27:22.981Z,11.00
2018-04-02T10:29:52.077Z,11.00
2018-04-02T10:32:21.087Z,11.50
2018-04-02T10:34:50.159Z,11.50
2018-04-02T10:37:19.994Z,11.30
2018-04-02T10:39:49.789Z,11.30
2018-04-02T10:42:18.840Z,11.30
2018-04-02T10:44:48.238Z,11.70
2018-04-02T10:47:17.286Z,12.30
2018-04-02T10:49:46.352Z,12.50
2018-04-02T10:52:16.161Z,13.60
2018-04-02T10:54:45.992Z,14.20
2018-04-02T10:57:15.046Z,14.20
2018-04-02T10:59:44.199Z,14.60
2018-04-02T11:02:13.161Z,14.70
2018-04-02T11:04:43.017Z,14.90
2018-04-02T11:07:12.086Z,14.80
2018-04-02T11:09:41.168Z,15.00
2018-04-02T11:12:10.977Z,15.20
2018-04-02T11:14:40.819Z,15.40
2018-04-02T11:17:09.862Z,15.40
2018-04-02T11:19:38.953Z,15.60
2018-04-02T11:22:08.048Z,15.20
2018-04-02T11:24:37.098Z,15.70
2018-04-02T11:27:06.169Z,16.30
2018-04-02T11:29:35.993Z,16.70
2018-04-02T11:32:05.351Z,16.70
2018-04-02T11:34:34.490Z,16.50
2018-04-02T11:37:03.843Z,16.40
2018-04-02T11:39:32.879Z,16.60
2018-04-02T11:42:01.938Z,16.90
2018-04-02T11:44:30.977Z,17.10
2018-04-02T11:47:00.033Z,16.90
2018-04-02T11:49:29.065Z,16.90
2018-04-02T11:51:58.132Z,17.10
2018-04-02T11:54:27.948Z,17.40
2018-04-02T11:56:57.771Z,17.50
2018-04-02T11:59:26.809Z,17.50
2018-04-02T12:01:55.865Z,17.30
2018-04-02T12:04:24.950Z,16.70
2018-04-02T12:06:54.748Z,16.10
2018-04-02T12:09:24.577Z,16.40
2018-04-02T12:11:54.625Z,16.70
2018-04-02T12:14:23.754Z,16.70
2018-04-02T12:16:52.761Z,17.50
2018-04-02T12:19:22.622Z,15.80
2018-04-02T12:21:51.635Z,15.80
2018-04-02T12:24:20.664Z,16.30
2018-04-02T12:26:49.749Z,16.90
2018-04-02T12:29:18.813Z,17.70
2018-04-02T12:31:47.864Z,17.50
2018-04-02T12:34:17.731Z,17.50
2018-04-02T12:36:46.777Z,17.50
2018-04-02T12:39:15.850Z,17.30
2018-04-02T12:41:44.904Z,17.40
2018-04-02T12:44:13.944Z,17.50
2018-04-02T12:46:43.749Z,17.80
2018-04-02T12:49:12.827Z,17.80
2018-04-02T12:51:41.899Z,18.90
2018-04-02T12:54:10.950Z,18.30
2018-04-02T12:56:40.804Z,18.10
2018-04-02T12:59:09.865Z,18.10
2018-04-02T13:01:38.902Z,18.20
2018-04-02T13:04:07.988Z,18.50
2018-04-02T13:06:37.020Z,18.80
2018-04-02T13:09:06.833Z,19.20
2018-04-02T13:11:36.670Z,19.60
2018-04-02T13:14:05.738Z,19.60
2018-04-02T13:16:34.793Z,20.00
2018-04-02T13:19:04.633Z,21.30
2018-04-02T13:21:33.681Z,21.20
2018-04-02T13:24:02.741Z,21.30
2018-04-02T13:26:32.566Z,18.90
2018-04-02T13:29:02.442Z,19.10
2018-04-02T13:31:31.547Z,19.00
2018-04-02T13:34:00.563Z,19.50
2018-04-02T13:36:30.392Z,19.50
2018-04-02T13:38:59.436Z,19.50
2018-04-02T13:41:28.536Z,18.90
2018-04-02T13:43:57.571Z,18.70
2018-04-02T13:46:26.666Z,19.20
2018-04-02T13:48:55.723Z,19.70
2018-04-02T13:51:24.766Z,19.80
2018-04-02T13:53:53.833Z,19.60
2018-04-02T13:56:22.880Z,20.10
2018-04-02T13:58:51.902Z,20.20
2018-04-02T14:01:20.963Z,20.20
2018-04-02T14:03:50.034Z,19.40
2018-04-02T14:06:19.093Z,19.30
2018-04-02T14:08:48.886Z,18.20
2018-04-02T14:11:18.018Z,18.10
2018-04-02T14:13:47.065Z,18.30
2018-04-02T14:16:16.145Z,18.90
2018-04-02T14:18:45.186Z,19.30
2018-04-02T14:21:15.000Z,18.20
2018-04-02T14:23:44.813Z,17.90
2018-04-02T14:26:14.630Z,17.60
2018-04-02T14:28:44.457Z,17.60
2018-04-02T14:31:13.543Z,17.60
2018-04-02T14:33:43.342Z,18.20
2018-04-02T14:36:13.334Z,18.60
2018-04-02T14:38:42.356Z,18.60
2018-04-02T14:41:12.203Z,19.70
2018-04-02T14:43:41.253Z,19.60
2018-04-02T14:46:10.334Z,18.90
2018-04-02T14:48:39.380Z,18.80
2018-04-02T14:51:08.416Z,18.30
2018-04-02T14:53:37.481Z,18.20
2018-04-02T14:56:06.509Z,17.90
2018-04-02T14:58:35.584Z,17.30
2018-04-02T15:01:04.666Z,16.40
2018-04-02T15:03:33.738Z,15.80
2018-04-02T15:06:02.801Z,15.60
2018-04-02T15:08:32.616Z,14.30
2018-04-02T15:11:02.477Z,13.80
2018-04-02T15:13:31.520Z,13.80
2018-04-02T15:16:00.601Z,13.60
2018-04-02T15:18:29.632Z,13.40
2018-04-02T15:20:58.689Z,13.30
2018-04-02T15:23:27.715Z,13.40
2018-04-02T15:25:57.537Z,13.40
2018-04-02T15:28:26.586Z,13.40
2018-04-02T15:30:55.667Z,13.50
2018-04-02T15:33:25.488Z,13.60
2018-04-02T15:35:54.719Z,13.60
2018-04-02T15:38:23.896Z,13.30
2018-04-02T15:40:53.087Z,13.00
2018-04-02T15:43:22.321Z,12.80
2018-04-02T15:45:51.548Z,12.80
2018-04-02T15:48:20.846Z,12.50
2018-04-02T15:50:50.265Z,12.50
2018-04-02T15:53:19.731Z,12.80
2018-04-02T15:55:49.843Z,12.90
2018-04-02T15:58:19.143Z,12.90
2018-04-02T16:00:48.443Z,12.80
2018-04-02T16:03:18.690Z,12.70
2018-04-02T16:05:48.781Z,12.50
2018-04-02T16:08:18.256Z,12.40
2018-04-02T16:10:47.576Z,12.30
2018-04-02T16:13:16.925Z,12.10
2018-04-02T16:15:46.279Z,12.00
2018-04-02T16:18:15.593Z,11.90
2018-04-02T16:20:45.080Z,12.00
2018-04-02T16:23:14.421Z,12.10
2018-04-02T16:25:44.517Z,12.30
2018-04-02T16:28:13.838Z,12.20
2018-04-02T16:30:43.961Z,12.20
2018-04-02T16:33:13.350Z,12.20
2018-04-02T16:35:43.493Z,12.10
2018-04-02T16:38:12.838Z,12.00
2018-04-02T16:40:43.208Z,12.00
2018-04-02T16:43:12.543Z,11.90
2018-04-02T16:45:41.897Z,11.80
2018-04-02T16:48:12.030Z,11.50
2018-04-02T16:50:41.372Z,11.50
2018-04-02T16:53:10.698Z,11.40
2018-04-02T16:55:40.080Z,11.30
2018-04-02T16:58:10.416Z,11.10
2018-04-02T17:00:39.773Z,11.10
2018-04-02T17:03:09.155Z,10.90
2018-04-02T17:05:39.258Z,10.70
2018-04-02T17:08:09.435Z,10.60
2018-04-02T17:10:38.821Z,10.50
2018-04-02T17:13:08.164Z,10.40
2018-04-02T17:15:37.591Z,10.40
2018-04-02T17:18:07.738Z,10.10
2018-04-02T17:20:37.093Z,10.10
2018-04-02T17:23:06.457Z,10.00
2018-04-02T17:25:35.830Z,9.90
2018-04-02T17:28:05.247Z,9.80
2018-04-02T17:30:34.625Z,9.60
2018-04-02T17:33:05.723Z,9.40
2018-04-02T17:35:35.889Z,9.40
2018-04-02T17:38:05.415Z,9.40
2018-04-02T17:40:34.800Z,9.20
2018-04-02T17:43:04.915Z,9.00
2018-04-02T17:45:35.048Z,8.90
2018-04-02T17:48:04.408Z,8.80
2018-04-02T17:50:33.780Z,8.70
2018-04-02T17:53:03.156Z,8.60
2018-04-02T17:55:32.693Z,8.60
2018-04-02T17:58:02.070Z,8.50
2018-04-02T18:00:31.432Z,8.50
2018-04-02T18:03:02.549Z,8.40
2018-04-02T18:05:32.741Z,8.20
2018-04-02T18:08:02.079Z,8.20
2018-04-02T18:10:31.512Z,8.20
2018-04-02T18:13:01.653Z,8.00
2018-04-02T18:15:31.031Z,8.00
2018-04-02T18:18:01.964Z,7.80
2018-04-02T18:20:32.116Z,7.80
2018-04-02T18:23:01.450Z,7.80
2018-04-02T18:25:30.815Z,7.70
2018-04-02T18:28:00.264Z,7.70
2018-04-02T18:30:29.618Z,7.60
2018-04-02T18:32:59.038Z,7.60
2018-04-02T18:35:28.386Z,7.50
2018-04-02T18:37:59.305Z,7.40
2018-04-02T18:40:30.176Z,7.40
2018-04-02T18:43:00.309Z,7.20
2018-04-02T18:45:29.736Z,7.20
2018-04-02T18:47:59.118Z,7.20
2018-04-02T18:50:28.461Z,7.10
2018-04-02T18:52:57.882Z,7.00
2018-04-02T18:55:27.234Z,7.00
2018-04-02T18:57:56.618Z,6.90
2018-04-02T19:00:26.628Z,6.80
2018-04-02T19:02:58.387Z,6.60
2018-04-02T19:05:30.193Z,6.60
2018-04-02T19:08:00.317Z,6.60
2018-04-02T19:10:30.271Z,6.60
2018-04-02T19:13:01.684Z,6.60
2018-04-02T19:15:31.185Z,6.60
2018-04-02T19:18:01.989Z,6.50
2018-04-02T19:20:31.389Z,6.40
2018-04-02T19:23:00.754Z,6.30
2018-04-02T19:25:30.906Z,6.20
2018-04-02T19:28:00.242Z,6.20
2018-04-02T19:30:30.628Z,6.10
2018-04-02T19:33:00.751Z,6.10
2018-04-02T19:35:30.128Z,6.20
2018-04-02T19:38:00.231Z,6.10
2018-04-02T19:40:29.589Z,6.10
2018-04-02T19:42:58.969Z,6.10
2018-04-02T19:45:28.319Z,6.00
2018-04-02T19:47:57.673Z,6.00
2018-04-02T19:50:27.129Z,5.90
2018-04-02T19:52:56.472Z,5.90
2018-04-02T19:55:25.814Z,5.80
2018-04-02T19:57:55.282Z,5.80
2018-04-02T20:00:24.621Z,5.80
2018-04-02T20:02:53.958Z,5.80
2018-04-02T20:05:24.099Z,5.70
2018-04-02T20:07:53.487Z,5.60
2018-04-02T20:10:23.606Z,5.60
2018-04-02T20:12:54.323Z,5.50
2018-04-02T20:15:24.598Z,5.50
2018-04-02T20:17:53.953Z,5.50
2018-04-02T20:20:24.077Z,5.40
2018-04-02T20:22:54.218Z,5.40
2018-04-02T20:25:23.561Z,5.40
2018-04-02T20:27:52.992Z,5.40
2018-04-02T20:30:22.339Z,5.30
2018-04-02T20:32:51.675Z,5.30
2018-04-02T20:35:21.042Z,5.30
2018-04-02T20:37:50.424Z,5.20
2018-04-02T20:40:20.527Z,5.20
2018-04-02T20:42:50.668Z,5.20
2018-04-02T20:45:20.049Z,5.20
2018-04-02T20:47:50.156Z,5.10
2018-04-02T20:50:19.510Z,5.10
2018-04-02T20:52:49.823Z,5.10
2018-04-02T20:55:19.181Z,5.00
2018-04-02T20:57:48.514Z,4.90
2018-04-02T21:00:17.914Z,4.90
2018-04-02T21:02:47.850Z,4.90
2018-04-02T21:05:18.039Z,4.80
2018-04-02T21:07:48.144Z,4.80
2018-04-02T21:10:18.285Z,4.70
2018-04-02T21:12:47.629Z,4.70
2018-04-02T21:15:17.741Z,4.60
2018-04-02T21:17:47.070Z,4.60
2018-04-02T21:20:17.219Z,4.50
2018-04-02T21:22:47.331Z,4.50
2018-04-02T21:25:17.454Z,4.50
2018-04-02T21:27:47.546Z,4.50
2018-04-02T21:30:16.912Z,4.40
2018-04-02T21:32:46.259Z,4.40
2018-04-02T21:35:15.798Z,4.40
2018-04-02T21:37:45.742Z,4.40
2018-04-02T21:40:15.054Z,4.40
2018-04-02T21:42:44.421Z,4.40
2018-04-02T21:45:13.738Z,4.30
2018-04-02T21:47:43.070Z,4.30
2018-04-02T21:50:12.374Z,4.30
2018-04-02T21:52:41.727Z,4.20
2018-04-02T21:55:11.059Z,4.20
2018-04-02T21:57:40.364Z,4.10
2018-04-02T22:00:09.682Z,4.10
2018-04-02T22:02:39.026Z,4.00
2018-04-02T22:05:08.350Z,4.00
2018-04-02T22:07:37.651Z,4.00
2018-04-02T22:10:06.960Z,4.00
2018-04-02T22:12:36.235Z,4.00
2018-04-02T22:15:05.524Z,3.90
2018-04-02T22:17:35.568Z,3.90
2018-04-02T22:20:04.862Z,3.80
2018-04-02T22:22:34.143Z,3.90
2018-04-02T22:25:03.464Z,3.90
2018-04-02T22:27:32.736Z,3.90
2018-04-02T22:30:02.049Z,3.90
2018-04-02T22:32:31.334Z,3.80
2018-04-02T22:35:00.708Z,3.70
2018-04-02T22:37:29.996Z,3.70
2018-04-02T22:39:59.143Z,3.70
2018-04-02T22:42:28.443Z,3.70
2018-04-02T22:44:57.485Z,3.70
2018-04-02T22:47:27.284Z,3.50
2018-04-02T22:49:56.322Z,3.50
2018-04-02T22:52:25.369Z,3.50
2018-04-02T22:54:54.389Z,3.50
2018-04-02T22:57:23.466Z,3.40
2018-04-02T22:59:53.289Z,3.30
2018-04-02T23:02:23.094Z,3.30
2018-04-02T23:04:52.192Z,3.30
2018-04-02T23:07:21.994Z,3.20
2018-04-02T23:09:51.045Z,3.20
2018-04-02T23:12:20.084Z,3.30
2018-04-02T23:14:49.100Z,3.30
2018-04-02T23:17:18.211Z,3.40
2018-04-02T23:19:47.273Z,3.40
2018-04-02T23:22:34.903Z,3.30
2018-04-02T23:25:04.711Z,3.30
2018-04-02T23:27:34.527Z,3.20
2018-04-02T23:30:04.328Z,3.20
2018-04-02T23:32:33.349Z,3.20
2018-04-02T23:35:02.414Z,3.10
2018-04-02T23:37:31.914Z,3.10
2018-04-02T23:40:00.961Z,3.10
2018-04-02T23:42:30.018Z,3.10
2018-04-02T23:44:59.818Z,3.00
2018-04-02T23:47:28.855Z,3.00
2018-04-02T23:49:57.921Z,3.10
2018-04-02T23:52:27.733Z,3.10
2018-04-02T23:54:57.536Z,3.10
2018-04-02T23:57:27.352Z,3.00
2018-04-02T23:59:57.166Z,3.00
